sensor_id;sensor_type;location;lat;lon;timestamp;P1;durP1;ratioP1;P2;durP2;ratioP2
70414;SDS011;57837;52.064;113.478;2024-03-22T00:00:11;48.03;;;21.30;;
70414;SDS011;57837;52.064;113.478;2024-03-22T00:03:13;70.33;;;26.63;;
70414;SDS011;57837;52.064;113.478;2024-03-22T00:06:15;90.15;;;29.05;;
70414;SDS011;57837;52.064;113.478;2024-03-22T00:09:17;72.80;;;27.92;;
70414;SDS011;57837;52.064;113.478;2024-03-22T00:12:20;62.80;;;29.20;;
70414;SDS011;57837;52.064;113.478;2024-03-22T00:15:21;74.18;;;31.17;;
70414;SDS011;57837;52.064;113.478;2024-03-22T00:18:24;56.93;;;24.93;;
70414;SDS011;57837;52.064;113.478;2024-03-22T00:21:27;52.43;;;24.47;;
70414;SDS011;57837;52.064;113.478;2024-03-22T00:24:30;47.50;;;23.08;;
70414;SDS011;57837;52.064;113.478;2024-03-22T00:27:32;52.97;;;23.38;;
70414;SDS011;57837;52.064;113.478;2024-03-22T00:30:34;50.28;;;21.48;;
70414;SDS011;57837;52.064;113.478;2024-03-22T00:33:37;50.13;;;21.33;;
70414;SDS011;57837;52.064;113.478;2024-03-22T00:36:39;48.27;;;21.93;;
70414;SDS011;57837;52.064;113.478;2024-03-22T00:39:41;45.65;;;21.85;;
70414;SDS011;57837;52.064;113.478;2024-03-22T00:42:43;63.50;;;22.45;;
70414;SDS011;57837;52.064;113.478;2024-03-22T00:45:45;39.72;;;18.85;;
70414;SDS011;57837;52.064;113.478;2024-03-22T00:48:47;33.90;;;17.13;;
70414;SDS011;57837;52.064;113.478;2024-03-22T00:51:50;60.87;;;17.60;;
70414;SDS011;57837;52.064;113.478;2024-03-22T00:54:52;54.75;;;15.85;;
70414;SDS011;57837;52.064;113.478;2024-03-22T00:57:54;41.13;;;17.75;;
70414;SDS011;57837;52.064;113.478;2024-03-22T01:00:56;23.85;;;13.10;;
70414;SDS011;57837;52.064;113.478;2024-03-22T01:03:57;28.03;;;12.63;;
70414;SDS011;57837;52.064;113.478;2024-03-22T01:06:59;26.33;;;12.13;;
70414;SDS011;57837;52.064;113.478;2024-03-22T01:10:03;28.60;;;12.55;;
70414;SDS011;57837;52.064;113.478;2024-03-22T01:13:06;18.67;;;11.10;;
70414;SDS011;57837;52.064;113.478;2024-03-22T01:16:08;21.00;;;10.25;;
70414;SDS011;57837;52.064;113.478;2024-03-22T01:19:11;23.77;;;10.77;;
70414;SDS011;57837;52.064;113.478;2024-03-22T01:22:13;19.60;;;10.70;;
70414;SDS011;57837;52.064;113.478;2024-03-22T01:25:15;21.25;;;10.45;;
70414;SDS011;57837;52.064;113.478;2024-03-22T01:28:17;22.08;;;10.00;;
70414;SDS011;57837;52.064;113.478;2024-03-22T01:31:19;20.95;;;10.57;;
70414;SDS011;57837;52.064;113.478;2024-03-22T01:34:21;28.47;;;10.73;;
70414;SDS011;57837;52.064;113.478;2024-03-22T01:37:24;26.27;;;11.13;;
70414;SDS011;57837;52.064;113.478;2024-03-22T01:40:26;25.42;;;11.13;;
70414;SDS011;57837;52.064;113.478;2024-03-22T01:43:29;27.92;;;10.95;;
70414;SDS011;57837;52.064;113.478;2024-03-22T01:46:30;22.23;;;10.25;;
70414;SDS011;57837;52.064;113.478;2024-03-22T01:49:32;31.07;;;10.23;;
70414;SDS011;57837;52.064;113.478;2024-03-22T01:52:35;25.23;;;10.50;;
70414;SDS011;57837;52.064;113.478;2024-03-22T01:55:37;22.08;;;9.80;;
70414;SDS011;57837;52.064;113.478;2024-03-22T01:58:39;25.73;;;10.23;;
70414;SDS011;57837;52.064;113.478;2024-03-22T02:01:42;37.83;;;13.32;;
70414;SDS011;57837;52.064;113.478;2024-03-22T02:04:45;28.10;;;11.53;;
70414;SDS011;57837;52.064;113.478;2024-03-22T02:07:50;23.03;;;11.43;;
70414;SDS011;57837;52.064;113.478;2024-03-22T02:10:51;36.40;;;12.35;;
70414;SDS011;57837;52.064;113.478;2024-03-22T02:14:07;20.58;;;9.65;;
70414;SDS011;57837;52.064;113.478;2024-03-22T02:17:09;30.55;;;10.60;;
70414;SDS011;57837;52.064;113.478;2024-03-22T02:20:11;17.57;;;6.70;;
70414;SDS011;57837;52.064;113.478;2024-03-22T02:23:13;17.50;;;6.87;;
70414;SDS011;57837;52.064;113.478;2024-03-22T02:26:15;20.13;;;5.30;;
70414;SDS011;57837;52.064;113.478;2024-03-22T02:29:17;14.60;;;5.20;;
70414;SDS011;57837;52.064;113.478;2024-03-22T02:32:19;17.45;;;5.82;;
70414;SDS011;57837;52.064;113.478;2024-03-22T02:35:21;9.37;;;3.60;;
70414;SDS011;57837;52.064;113.478;2024-03-22T02:38:22;13.63;;;5.33;;
70414;SDS011;57837;52.064;113.478;2024-03-22T02:41:25;12.07;;;5.55;;
70414;SDS011;57837;52.064;113.478;2024-03-22T02:44:27;11.75;;;4.95;;
70414;SDS011;57837;52.064;113.478;2024-03-22T02:47:30;17.60;;;4.63;;
70414;SDS011;57837;52.064;113.478;2024-03-22T02:50:36;14.97;;;5.10;;
70414;SDS011;57837;52.064;113.478;2024-03-22T02:53:39;18.77;;;7.30;;
70414;SDS011;57837;52.064;113.478;2024-03-22T02:56:40;14.10;;;5.82;;
70414;SDS011;57837;52.064;113.478;2024-03-22T02:59:42;21.77;;;6.47;;
70414;SDS011;57837;52.064;113.478;2024-03-22T03:02:45;13.77;;;4.97;;
70414;SDS011;57837;52.064;113.478;2024-03-22T03:05:48;13.87;;;5.30;;
70414;SDS011;57837;52.064;113.478;2024-03-22T03:08:50;19.27;;;7.77;;
70414;SDS011;57837;52.064;113.478;2024-03-22T03:11:54;21.35;;;5.53;;
70414;SDS011;57837;52.064;113.478;2024-03-22T03:14:57;10.57;;;4.55;;
70414;SDS011;57837;52.064;113.478;2024-03-22T03:17:59;10.95;;;3.70;;
70414;SDS011;57837;52.064;113.478;2024-03-22T03:21:01;13.60;;;3.60;;
70414;SDS011;57837;52.064;113.478;2024-03-22T03:24:04;14.37;;;3.03;;
70414;SDS011;57837;52.064;113.478;2024-03-22T03:27:07;8.23;;;3.10;;
70414;SDS011;57837;52.064;113.478;2024-03-22T03:30:09;5.90;;;2.50;;
70414;SDS011;57837;52.064;113.478;2024-03-22T03:33:12;8.40;;;2.33;;
70414;SDS011;57837;52.064;113.478;2024-03-22T03:36:13;9.23;;;2.50;;
70414;SDS011;57837;52.064;113.478;2024-03-22T03:39:15;6.20;;;2.87;;
70414;SDS011;57837;52.064;113.478;2024-03-22T03:42:17;7.75;;;3.10;;
70414;SDS011;57837;52.064;113.478;2024-03-22T03:45:19;7.82;;;3.20;;
70414;SDS011;57837;52.064;113.478;2024-03-22T03:48:22;9.23;;;3.58;;
70414;SDS011;57837;52.064;113.478;2024-03-22T03:51:24;11.70;;;3.90;;
70414;SDS011;57837;52.064;113.478;2024-03-22T03:54:27;15.60;;;3.60;;
70414;SDS011;57837;52.064;113.478;2024-03-22T03:57:30;9.73;;;3.38;;
70414;SDS011;57837;52.064;113.478;2024-03-22T04:00:33;7.20;;;2.17;;
70414;SDS011;57837;52.064;113.478;2024-03-22T04:03:35;26.67;;;2.05;;
70414;SDS011;57837;52.064;113.478;2024-03-22T04:06:38;6.40;;;2.13;;
70414;SDS011;57837;52.064;113.478;2024-03-22T04:09:40;7.53;;;2.50;;
70414;SDS011;57837;52.064;113.478;2024-03-22T04:12:44;10.40;;;3.30;;
70414;SDS011;57837;52.064;113.478;2024-03-22T04:15:50;8.80;;;2.97;;
70414;SDS011;57837;52.064;113.478;2024-03-22T04:18:52;9.52;;;2.72;;
70414;SDS011;57837;52.064;113.478;2024-03-22T04:21:54;13.53;;;2.37;;
70414;SDS011;57837;52.064;113.478;2024-03-22T04:24:58;6.03;;;1.90;;
70414;SDS011;57837;52.064;113.478;2024-03-22T04:28:00;18.33;;;2.55;;
70414;SDS011;57837;52.064;113.478;2024-03-22T04:31:03;3.78;;;1.55;;
70414;SDS011;57837;52.064;113.478;2024-03-22T04:34:06;5.25;;;1.88;;
70414;SDS011;57837;52.064;113.478;2024-03-22T04:37:08;4.27;;;1.60;;
70414;SDS011;57837;52.064;113.478;2024-03-22T04:40:11;4.80;;;1.40;;
70414;SDS011;57837;52.064;113.478;2024-03-22T04:43:13;11.85;;;2.55;;
70414;SDS011;57837;52.064;113.478;2024-03-22T04:46:17;6.57;;;1.50;;
70414;SDS011;57837;52.064;113.478;2024-03-22T04:49:20;5.03;;;1.30;;
70414;SDS011;57837;52.064;113.478;2024-03-22T04:52:22;3.30;;;1.23;;
70414;SDS011;57837;52.064;113.478;2024-03-22T04:55:25;2.97;;;1.00;;
70414;SDS011;57837;52.064;113.478;2024-03-22T04:58:27;5.60;;;1.13;;
70414;SDS011;57837;52.064;113.478;2024-03-22T05:01:30;2.90;;;1.00;;
70414;SDS011;57837;52.064;113.478;2024-03-22T05:04:32;1.70;;;0.80;;
70414;SDS011;57837;52.064;113.478;2024-03-22T05:07:34;5.77;;;1.13;;
70414;SDS011;57837;52.064;113.478;2024-03-22T05:10:35;8.17;;;1.47;;
70414;SDS011;57837;52.064;113.478;2024-03-22T05:13:38;7.85;;;1.98;;
70414;SDS011;57837;52.064;113.478;2024-03-22T05:16:43;6.45;;;1.30;;
70414;SDS011;57837;52.064;113.478;2024-03-22T05:19:46;5.80;;;1.45;;
70414;SDS011;57837;52.064;113.478;2024-03-22T05:22:48;5.13;;;1.37;;
70414;SDS011;57837;52.064;113.478;2024-03-22T05:25:51;18.70;;;1.77;;
70414;SDS011;57837;52.064;113.478;2024-03-22T05:28:53;5.43;;;2.15;;
70414;SDS011;57837;52.064;113.478;2024-03-22T05:31:57;2.22;;;1.13;;
70414;SDS011;57837;52.064;113.478;2024-03-22T05:35:00;1.30;;;0.50;;
70414;SDS011;57837;52.064;113.478;2024-03-22T05:38:02;4.47;;;1.47;;
70414;SDS011;57837;52.064;113.478;2024-03-22T05:41:04;1.43;;;0.70;;
70414;SDS011;57837;52.064;113.478;2024-03-22T05:44:07;5.53;;;0.98;;
70414;SDS011;57837;52.064;113.478;2024-03-22T05:47:10;3.00;;;0.70;;
70414;SDS011;57837;52.064;113.478;2024-03-22T05:50:13;7.60;;;0.57;;
70414;SDS011;57837;52.064;113.478;2024-03-22T05:53:15;6.63;;;1.10;;
70414;SDS011;57837;52.064;113.478;2024-03-22T05:56:18;5.17;;;0.83;;
70414;SDS011;57837;52.064;113.478;2024-03-22T05:59:20;5.57;;;1.13;;
70414;SDS011;57837;52.064;113.478;2024-03-22T06:02:22;4.13;;;0.70;;
70414;SDS011;57837;52.064;113.478;2024-03-22T06:05:24;6.85;;;1.05;;
70414;SDS011;57837;52.064;113.478;2024-03-22T06:08:27;8.73;;;0.60;;
70414;SDS011;57837;52.064;113.478;2024-03-22T06:11:30;3.50;;;0.80;;
70414;SDS011;57837;52.064;113.478;2024-03-22T06:14:33;2.13;;;0.60;;
70414;SDS011;57837;52.064;113.478;2024-03-22T06:17:35;8.93;;;0.80;;
70414;SDS011;57837;52.064;113.478;2024-03-22T06:20:37;1.52;;;0.60;;
70414;SDS011;57837;52.064;113.478;2024-03-22T06:23:39;4.70;;;1.20;;
70414;SDS011;57837;52.064;113.478;2024-03-22T06:26:41;2.47;;;0.60;;
70414;SDS011;57837;52.064;113.478;2024-03-22T06:29:45;6.25;;;0.70;;
70414;SDS011;57837;52.064;113.478;2024-03-22T06:32:48;5.38;;;1.38;;
70414;SDS011;57837;52.064;113.478;2024-03-22T06:35:50;6.25;;;0.90;;
70414;SDS011;57837;52.064;113.478;2024-03-22T06:38:53;2.73;;;0.80;;
70414;SDS011;57837;52.064;113.478;2024-03-22T06:41:59;10.93;;;1.13;;
70414;SDS011;57837;52.064;113.478;2024-03-22T06:45:01;17.73;;;3.00;;
70414;SDS011;57837;52.064;113.478;2024-03-22T06:48:03;94.13;;;23.13;;
70414;SDS011;57837;52.064;113.478;2024-03-22T06:51:06;52.10;;;16.20;;
70414;SDS011;57837;52.064;113.478;2024-03-22T06:54:12;51.33;;;18.23;;
70414;SDS011;57837;52.064;113.478;2024-03-22T06:57:14;92.23;;;37.40;;
70414;SDS011;57837;52.064;113.478;2024-03-22T07:00:17;49.75;;;22.33;;
70414;SDS011;57837;52.064;113.478;2024-03-22T07:03:20;18.83;;;6.45;;
70414;SDS011;57837;52.064;113.478;2024-03-22T07:06:23;13.70;;;3.63;;
70414;SDS011;57837;52.064;113.478;2024-03-22T07:09:24;24.63;;;2.43;;
70414;SDS011;57837;52.064;113.478;2024-03-22T07:12:30;17.87;;;2.70;;
70414;SDS011;57837;52.064;113.478;2024-03-22T07:15:32;9.60;;;2.10;;
70414;SDS011;57837;52.064;113.478;2024-03-22T07:18:35;4.65;;;1.20;;
70414;SDS011;57837;52.064;113.478;2024-03-22T07:21:38;8.63;;;0.80;;
70414;SDS011;57837;52.064;113.478;2024-03-22T07:24:41;2.33;;;0.70;;
70414;SDS011;57837;52.064;113.478;2024-03-22T07:27:53;1.80;;;0.87;;
70414;SDS011;57837;52.064;113.478;2024-03-22T07:30:57;7.32;;;3.72;;
70414;SDS011;57837;52.064;113.478;2024-03-22T07:34:00;3.75;;;1.98;;
70414;SDS011;57837;52.064;113.478;2024-03-22T07:37:10;10.90;;;1.48;;
70414;SDS011;57837;52.064;113.478;2024-03-22T07:40:15;7.00;;;1.87;;
70414;SDS011;57837;52.064;113.478;2024-03-22T07:43:18;3.60;;;1.27;;
70414;SDS011;57837;52.064;113.478;2024-03-22T07:46:20;6.50;;;1.52;;
70414;SDS011;57837;52.064;113.478;2024-03-22T07:49:24;13.75;;;1.98;;
70414;SDS011;57837;52.064;113.478;2024-03-22T07:52:27;7.53;;;1.58;;
70414;SDS011;57837;52.064;113.478;2024-03-22T07:55:29;10.13;;;1.47;;
70414;SDS011;57837;52.064;113.478;2024-03-22T07:58:31;3.67;;;1.53;;
70414;SDS011;57837;52.064;113.478;2024-03-22T08:01:34;7.10;;;1.58;;
70414;SDS011;57837;52.064;113.478;2024-03-22T08:04:35;12.40;;;1.83;;
70414;SDS011;57837;52.064;113.478;2024-03-22T08:07:38;8.63;;;1.70;;
70414;SDS011;57837;52.064;113.478;2024-03-22T08:10:40;27.60;;;2.10;;
70414;SDS011;57837;52.064;113.478;2024-03-22T08:13:42;13.43;;;1.87;;
70414;SDS011;57837;52.064;113.478;2024-03-22T08:16:45;9.10;;;1.85;;
70414;SDS011;57837;52.064;113.478;2024-03-22T08:19:46;20.23;;;2.75;;
70414;SDS011;57837;52.064;113.478;2024-03-22T08:22:48;21.73;;;2.08;;
70414;SDS011;57837;52.064;113.478;2024-03-22T08:25:50;12.63;;;1.83;;
70414;SDS011;57837;52.064;113.478;2024-03-22T08:28:58;16.30;;;3.10;;
70414;SDS011;57837;52.064;113.478;2024-03-22T08:32:00;17.90;;;1.98;;
70414;SDS011;57837;52.064;113.478;2024-03-22T08:35:05;10.05;;;1.90;;
70414;SDS011;57837;52.064;113.478;2024-03-22T08:38:11;4.68;;;2.45;;
70414;SDS011;57837;52.064;113.478;2024-03-22T08:41:15;14.63;;;1.30;;
70414;SDS011;57837;52.064;113.478;2024-03-22T08:44:17;11.47;;;2.00;;
70414;SDS011;57837;52.064;113.478;2024-03-22T08:47:20;14.25;;;3.85;;
70414;SDS011;57837;52.064;113.478;2024-03-22T08:50:21;9.88;;;2.47;;
70414;SDS011;57837;52.064;113.478;2024-03-22T08:53:23;6.25;;;1.42;;
70414;SDS011;57837;52.064;113.478;2024-03-22T08:56:26;5.17;;;1.60;;
70414;SDS011;57837;52.064;113.478;2024-03-22T08:59:28;8.40;;;1.20;;
70414;SDS011;57837;52.064;113.478;2024-03-22T09:02:30;9.85;;;1.75;;
70414;SDS011;57837;52.064;113.478;2024-03-22T09:05:33;5.40;;;2.13;;
70414;SDS011;57837;52.064;113.478;2024-03-22T09:08:35;6.63;;;3.13;;
70414;SDS011;57837;52.064;113.478;2024-03-22T09:11:37;10.37;;;3.07;;
70414;SDS011;57837;52.064;113.478;2024-03-22T09:14:40;18.75;;;4.82;;
70414;SDS011;57837;52.064;113.478;2024-03-22T09:17:41;16.15;;;4.45;;
70414;SDS011;57837;52.064;113.478;2024-03-22T09:20:44;13.05;;;4.63;;
70414;SDS011;57837;52.064;113.478;2024-03-22T09:23:45;10.05;;;3.15;;
70414;SDS011;57837;52.064;113.478;2024-03-22T09:26:48;9.37;;;2.20;;
70414;SDS011;57837;52.064;113.478;2024-03-22T09:29:50;17.92;;;4.68;;
70414;SDS011;57837;52.064;113.478;2024-03-22T09:32:54;11.88;;;3.55;;
70414;SDS011;57837;52.064;113.478;2024-03-22T09:35:55;22.05;;;5.35;;
70414;SDS011;57837;52.064;113.478;2024-03-22T09:38:57;20.45;;;5.03;;
70414;SDS011;57837;52.064;113.478;2024-03-22T09:42:00;14.60;;;4.20;;
70414;SDS011;57837;52.064;113.478;2024-03-22T09:45:10;11.45;;;4.10;;
70414;SDS011;57837;52.064;113.478;2024-03-22T09:48:14;25.85;;;7.60;;
70414;SDS011;57837;52.064;113.478;2024-03-22T09:51:20;10.05;;;4.00;;
70414;SDS011;57837;52.064;113.478;2024-03-22T09:54:24;14.10;;;4.40;;
70414;SDS011;57837;52.064;113.478;2024-03-22T09:57:26;19.87;;;6.00;;
70414;SDS011;57837;52.064;113.478;2024-03-22T10:00:29;7.00;;;2.55;;
70414;SDS011;57837;52.064;113.478;2024-03-22T10:03:32;10.70;;;3.30;;
70414;SDS011;57837;52.064;113.478;2024-03-22T10:06:34;9.13;;;2.70;;
70414;SDS011;57837;52.064;113.478;2024-03-22T10:09:35;4.70;;;1.85;;
70414;SDS011;57837;52.064;113.478;2024-03-22T10:12:38;7.37;;;2.60;;
70414;SDS011;57837;52.064;113.478;2024-03-22T10:15:41;10.02;;;3.47;;
70414;SDS011;57837;52.064;113.478;2024-03-22T10:18:44;18.13;;;5.38;;
70414;SDS011;57837;52.064;113.478;2024-03-22T10:21:47;20.02;;;6.15;;
70414;SDS011;57837;52.064;113.478;2024-03-22T10:24:50;8.38;;;3.13;;
70414;SDS011;57837;52.064;113.478;2024-03-22T10:27:54;12.20;;;5.27;;
70414;SDS011;57837;52.064;113.478;2024-03-22T10:30:56;25.17;;;11.93;;
70414;SDS011;57837;52.064;113.478;2024-03-22T10:33:59;19.20;;;8.15;;
70414;SDS011;57837;52.064;113.478;2024-03-22T10:37:05;13.43;;;7.15;;
70414;SDS011;57837;52.064;113.478;2024-03-22T10:40:11;10.23;;;3.92;;
70414;SDS011;57837;52.064;113.478;2024-03-22T10:43:17;12.43;;;6.00;;
70414;SDS011;57837;52.064;113.478;2024-03-22T10:46:19;13.93;;;6.22;;
70414;SDS011;57837;52.064;113.478;2024-03-22T10:49:25;15.32;;;5.70;;
70414;SDS011;57837;52.064;113.478;2024-03-22T10:53:16;10.60;;;5.05;;
70414;SDS011;57837;52.064;113.478;2024-03-22T10:56:03;12.98;;;6.97;;
70414;SDS011;57837;52.064;113.478;2024-03-22T10:59:07;17.80;;;8.33;;
70414;SDS011;57837;52.064;113.478;2024-03-22T11:02:10;18.38;;;7.72;;
70414;SDS011;57837;52.064;113.478;2024-03-22T11:05:16;50.10;;;16.15;;
70414;SDS011;57837;52.064;113.478;2024-03-22T11:08:29;41.60;;;11.82;;
70414;SDS011;57837;52.064;113.478;2024-03-22T11:11:31;19.52;;;7.20;;
70414;SDS011;57837;52.064;113.478;2024-03-22T11:14:39;15.37;;;7.03;;
70414;SDS011;57837;52.064;113.478;2024-03-22T11:17:41;14.98;;;6.55;;
70414;SDS011;57837;52.064;113.478;2024-03-22T11:20:45;25.27;;;8.63;;
70414;SDS011;57837;52.064;113.478;2024-03-22T11:23:47;22.02;;;9.00;;
70414;SDS011;57837;52.064;113.478;2024-03-22T11:26:49;27.63;;;10.23;;
70414;SDS011;57837;52.064;113.478;2024-03-22T11:29:51;24.37;;;9.17;;
70414;SDS011;57837;52.064;113.478;2024-03-22T11:32:57;31.10;;;11.60;;
70414;SDS011;57837;52.064;113.478;2024-03-22T11:35:59;32.58;;;14.57;;
70414;SDS011;57837;52.064;113.478;2024-03-22T11:39:03;46.63;;;16.67;;
70414;SDS011;57837;52.064;113.478;2024-03-22T11:42:05;39.42;;;16.02;;
70414;SDS011;57837;52.064;113.478;2024-03-22T11:45:11;51.47;;;17.93;;
70414;SDS011;57837;52.064;113.478;2024-03-22T11:48:15;39.55;;;15.45;;
70414;SDS011;57837;52.064;113.478;2024-03-22T11:51:18;60.83;;;18.80;;
70414;SDS011;57837;52.064;113.478;2024-03-22T11:54:22;53.83;;;19.88;;
70414;SDS011;57837;52.064;113.478;2024-03-22T11:57:26;38.22;;;13.40;;
70414;SDS011;57837;52.064;113.478;2024-03-22T12:00:55;50.73;;;16.87;;
70414;SDS011;57837;52.064;113.478;2024-03-22T12:04:00;11.30;;;5.05;;
70414;SDS011;57837;52.064;113.478;2024-03-22T12:07:02;5.90;;;2.58;;
70414;SDS011;57837;52.064;113.478;2024-03-22T12:10:04;3.90;;;1.58;;
70414;SDS011;57837;52.064;113.478;2024-03-22T12:13:07;5.28;;;1.85;;
70414;SDS011;57837;52.064;113.478;2024-03-22T12:16:08;4.00;;;2.13;;
70414;SDS011;57837;52.064;113.478;2024-03-22T12:19:14;6.18;;;2.78;;
70414;SDS011;57837;52.064;113.478;2024-03-22T12:22:16;11.02;;;2.17;;
70414;SDS011;57837;52.064;113.478;2024-03-22T12:25:19;4.45;;;2.00;;
70414;SDS011;57837;52.064;113.478;2024-03-22T12:28:21;5.07;;;2.10;;
70414;SDS011;57837;52.064;113.478;2024-03-22T12:31:24;5.20;;;2.00;;
70414;SDS011;57837;52.064;113.478;2024-03-22T12:34:26;8.52;;;3.47;;
70414;SDS011;57837;52.064;113.478;2024-03-22T12:37:30;8.35;;;3.33;;
70414;SDS011;57837;52.064;113.478;2024-03-22T12:40:33;9.80;;;3.38;;
70414;SDS011;57837;52.064;113.478;2024-03-22T12:43:35;14.20;;;4.03;;
70414;SDS011;57837;52.064;113.478;2024-03-22T12:46:37;18.52;;;6.50;;
70414;SDS011;57837;52.064;113.478;2024-03-22T12:49:38;12.23;;;4.85;;
70414;SDS011;57837;52.064;113.478;2024-03-22T12:52:41;7.10;;;2.83;;
70414;SDS011;57837;52.064;113.478;2024-03-22T12:55:45;12.68;;;4.50;;
70414;SDS011;57837;52.064;113.478;2024-03-22T12:58:47;7.82;;;3.05;;
70414;SDS011;57837;52.064;113.478;2024-03-22T13:01:52;10.88;;;3.90;;
70414;SDS011;57837;52.064;113.478;2024-03-22T13:04:54;7.20;;;2.60;;
70414;SDS011;57837;52.064;113.478;2024-03-22T13:07:57;5.93;;;2.55;;
70414;SDS011;57837;52.064;113.478;2024-03-22T13:10:59;8.13;;;2.97;;
70414;SDS011;57837;52.064;113.478;2024-03-22T13:14:02;8.68;;;3.05;;
70414;SDS011;57837;52.064;113.478;2024-03-22T13:17:28;7.17;;;2.90;;
70414;SDS011;57837;52.064;113.478;2024-03-22T13:20:30;10.52;;;3.05;;
70414;SDS011;57837;52.064;113.478;2024-03-22T13:23:32;12.13;;;3.72;;
70414;SDS011;57837;52.064;113.478;2024-03-22T13:26:34;12.05;;;3.72;;
70414;SDS011;57837;52.064;113.478;2024-03-22T13:29:37;5.70;;;1.90;;
70414;SDS011;57837;52.064;113.478;2024-03-22T13:32:39;2.75;;;1.33;;
70414;SDS011;57837;52.064;113.478;2024-03-22T13:35:41;6.05;;;1.80;;
70414;SDS011;57837;52.064;113.478;2024-03-22T13:38:47;6.50;;;1.70;;
70414;SDS011;57837;52.064;113.478;2024-03-22T13:41:50;2.87;;;1.20;;
70414;SDS011;57837;52.064;113.478;2024-03-22T13:44:52;6.38;;;1.92;;
70414;SDS011;57837;52.064;113.478;2024-03-22T13:47:55;7.32;;;2.38;;
70414;SDS011;57837;52.064;113.478;2024-03-22T13:51:03;13.48;;;3.42;;
70414;SDS011;57837;52.064;113.478;2024-03-22T13:54:11;12.23;;;3.47;;
70414;SDS011;57837;52.064;113.478;2024-03-22T13:57:16;7.07;;;2.88;;
70414;SDS011;57837;52.064;113.478;2024-03-22T14:00:29;10.68;;;3.40;;
70414;SDS011;57837;52.064;113.478;2024-03-22T14:03:31;12.88;;;3.47;;
70414;SDS011;57837;52.064;113.478;2024-03-22T14:06:33;8.53;;;2.27;;
70414;SDS011;57837;52.064;113.478;2024-03-22T14:09:36;7.38;;;2.50;;
70414;SDS011;57837;52.064;113.478;2024-03-22T14:12:40;10.73;;;3.08;;
70414;SDS011;57837;52.064;113.478;2024-03-22T14:15:42;16.08;;;4.65;;
70414;SDS011;57837;52.064;113.478;2024-03-22T14:18:44;12.57;;;4.97;;
70414;SDS011;57837;52.064;113.478;2024-03-22T14:21:48;6.03;;;2.22;;
70414;SDS011;57837;52.064;113.478;2024-03-22T14:24:50;9.55;;;2.92;;
70414;SDS011;57837;52.064;113.478;2024-03-22T14:27:53;10.10;;;3.22;;
70414;SDS011;57837;52.064;113.478;2024-03-22T14:30:55;8.63;;;3.17;;
70414;SDS011;57837;52.064;113.478;2024-03-22T14:33:59;12.93;;;4.05;;
70414;SDS011;57837;52.064;113.478;2024-03-22T14:37:01;9.10;;;3.28;;
70414;SDS011;57837;52.064;113.478;2024-03-22T14:40:06;10.03;;;2.17;;
70414;SDS011;57837;52.064;113.478;2024-03-22T14:43:11;7.60;;;1.83;;
70414;SDS011;57837;52.064;113.478;2024-03-22T14:46:16;4.40;;;1.85;;
70414;SDS011;57837;52.064;113.478;2024-03-22T14:49:19;7.28;;;3.03;;
70414;SDS011;57837;52.064;113.478;2024-03-22T14:52:22;10.48;;;2.88;;
70414;SDS011;57837;52.064;113.478;2024-03-22T14:55:25;11.13;;;3.50;;
70414;SDS011;57837;52.064;113.478;2024-03-22T14:58:27;10.40;;;2.58;;
70414;SDS011;57837;52.064;113.478;2024-03-22T15:01:33;7.67;;;2.20;;
70414;SDS011;57837;52.064;113.478;2024-03-22T15:04:36;4.30;;;1.75;;
70414;SDS011;57837;52.064;113.478;2024-03-22T15:07:38;4.90;;;1.65;;
70414;SDS011;57837;52.064;113.478;2024-03-22T15:10:40;6.87;;;1.57;;
70414;SDS011;57837;52.064;113.478;2024-03-22T15:13:42;5.72;;;1.90;;
70414;SDS011;57837;52.064;113.478;2024-03-22T15:16:44;13.40;;;2.78;;
70414;SDS011;57837;52.064;113.478;2024-03-22T15:19:46;7.25;;;1.85;;
70414;SDS011;57837;52.064;113.478;2024-03-22T15:22:50;4.78;;;2.40;;
70414;SDS011;57837;52.064;113.478;2024-03-22T15:25:53;12.18;;;2.85;;
70414;SDS011;57837;52.064;113.478;2024-03-22T15:28:56;14.32;;;3.67;;
70414;SDS011;57837;52.064;113.478;2024-03-22T15:31:59;16.43;;;3.70;;
70414;SDS011;57837;52.064;113.478;2024-03-22T15:35:02;10.80;;;3.80;;
70414;SDS011;57837;52.064;113.478;2024-03-22T15:38:06;7.05;;;2.10;;
70414;SDS011;57837;52.064;113.478;2024-03-22T15:41:08;4.50;;;1.60;;
70414;SDS011;57837;52.064;113.478;2024-03-22T15:44:10;3.80;;;1.55;;
70414;SDS011;57837;52.064;113.478;2024-03-22T15:47:12;3.15;;;1.10;;
70414;SDS011;57837;52.064;113.478;2024-03-22T15:50:14;6.32;;;1.48;;
70414;SDS011;57837;52.064;113.478;2024-03-22T15:53:17;4.57;;;1.38;;
70414;SDS011;57837;52.064;113.478;2024-03-22T15:56:18;3.08;;;1.40;;
70414;SDS011;57837;52.064;113.478;2024-03-22T15:59:20;2.60;;;0.80;;
70414;SDS011;57837;52.064;113.478;2024-03-22T16:02:22;5.97;;;1.40;;
70414;SDS011;57837;52.064;113.478;2024-03-22T16:05:26;5.32;;;1.10;;
70414;SDS011;57837;52.064;113.478;2024-03-22T16:08:27;3.03;;;0.80;;
70414;SDS011;57837;52.064;113.478;2024-03-22T16:11:30;4.30;;;1.37;;
70414;SDS011;57837;52.064;113.478;2024-03-22T16:14:32;2.58;;;0.85;;
70414;SDS011;57837;52.064;113.478;2024-03-22T16:17:35;2.63;;;1.13;;
70414;SDS011;57837;52.064;113.478;2024-03-22T16:20:37;2.83;;;0.90;;
70414;SDS011;57837;52.064;113.478;2024-03-22T16:23:42;4.93;;;0.93;;
70414;SDS011;57837;52.064;113.478;2024-03-22T16:26:44;3.53;;;0.95;;
70414;SDS011;57837;52.064;113.478;2024-03-22T16:29:46;2.10;;;0.90;;
70414;SDS011;57837;52.064;113.478;2024-03-22T16:32:49;2.27;;;0.90;;
70414;SDS011;57837;52.064;113.478;2024-03-22T16:35:51;2.35;;;0.88;;
70414;SDS011;57837;52.064;113.478;2024-03-22T16:38:53;2.08;;;0.98;;
70414;SDS011;57837;52.064;113.478;2024-03-22T16:41:56;12.00;;;0.87;;
70414;SDS011;57837;52.064;113.478;2024-03-22T16:44:58;9.43;;;0.63;;
70414;SDS011;57837;52.064;113.478;2024-03-22T16:48:01;1.83;;;0.60;;
70414;SDS011;57837;52.064;113.478;2024-03-22T16:51:03;9.07;;;1.13;;
70414;SDS011;57837;52.064;113.478;2024-03-22T16:54:06;4.88;;;0.90;;
70414;SDS011;57837;52.064;113.478;2024-03-22T16:57:15;2.80;;;0.68;;
70414;SDS011;57837;52.064;113.478;2024-03-22T17:00:17;2.00;;;0.68;;
70414;SDS011;57837;52.064;113.478;2024-03-22T17:03:20;2.90;;;0.80;;
70414;SDS011;57837;52.064;113.478;2024-03-22T17:06:23;5.60;;;1.30;;
70414;SDS011;57837;52.064;113.478;2024-03-22T17:09:24;3.13;;;0.80;;
70414;SDS011;57837;52.064;113.478;2024-03-22T17:12:26;4.33;;;1.40;;
70414;SDS011;57837;52.064;113.478;2024-03-22T17:15:29;6.00;;;1.20;;
70414;SDS011;57837;52.064;113.478;2024-03-22T17:18:32;10.50;;;2.72;;
70414;SDS011;57837;52.064;113.478;2024-03-22T17:21:34;11.38;;;2.08;;
70414;SDS011;57837;52.064;113.478;2024-03-22T17:24:37;3.85;;;1.35;;
70414;SDS011;57837;52.064;113.478;2024-03-22T17:27:39;4.38;;;0.98;;
70414;SDS011;57837;52.064;113.478;2024-03-22T17:30:45;3.33;;;1.10;;
70414;SDS011;57837;52.064;113.478;2024-03-22T17:33:46;1.83;;;0.50;;
70414;SDS011;57837;52.064;113.478;2024-03-22T17:36:49;3.13;;;0.50;;
70414;SDS011;57837;52.064;113.478;2024-03-22T17:39:54;1.75;;;0.70;;